createdAt,value
2018-09-02T00:01:29.462Z,5.35
2018-09-02T00:04:06.747Z,5.23
2018-09-02T00:06:44.196Z,6.33
2018-09-02T00:09:22.377Z,6.45
2018-09-02T00:11:59.157Z,5.63
2018-09-02T00:14:39.123Z,6.97
2018-09-02T00:17:17.024Z,5.80
2018-09-02T00:20:05.775Z,5.33
2018-09-02T00:22:43.794Z,5.23
2018-09-02T00:25:20.441Z,5.27
2018-09-02T00:27:55.406Z,4.97
2018-09-02T00:30:32.912Z,5.20
2018-09-02T00:33:11.843Z,4.93
2018-09-02T00:35:50.994Z,5.90
2018-09-02T00:38:29.722Z,5.37
2018-09-02T00:41:06.713Z,6.33
2018-09-02T00:43:36.089Z,5.77
2018-09-02T00:46:06.541Z,6.72
2018-09-02T00:48:35.936Z,6.80
2018-09-02T00:51:07.045Z,6.80
2018-09-02T00:53:36.477Z,5.47
2018-09-02T00:56:06.242Z,5.28
2018-09-02T00:58:35.605Z,5.33
2018-09-02T01:01:06.311Z,6.70
2018-09-02T01:03:35.669Z,7.20
2018-09-02T01:06:06.289Z,5.17
2018-09-02T01:08:35.696Z,6.57
2018-09-02T01:11:06.366Z,5.37
2018-09-02T01:13:35.788Z,6.07
2018-09-02T01:16:06.399Z,5.70
2018-09-02T01:18:35.758Z,6.73
2018-09-02T01:21:07.733Z,5.20
2018-09-02T01:23:37.316Z,5.80
2018-09-02T01:26:06.704Z,5.40
2018-09-02T01:28:36.416Z,6.13
2018-09-02T01:31:06.641Z,5.58
2018-09-02T01:33:36.110Z,6.27
2018-09-02T01:36:06.851Z,6.17
2018-09-02T01:38:37.314Z,4.50
2018-09-02T01:41:07.272Z,5.30
2018-09-02T01:43:37.623Z,5.67
2018-09-02T01:46:07.193Z,6.30
2018-09-02T01:48:38.503Z,5.17
2018-09-02T01:51:07.889Z,5.63
2018-09-02T01:53:37.261Z,6.20
2018-09-02T01:56:06.644Z,5.87
2018-09-02T01:58:44.449Z,7.67
2018-09-02T02:01:14.741Z,5.20
2018-09-02T02:03:44.334Z,5.50
2018-09-02T02:06:14.030Z,6.12
2018-09-02T02:08:43.749Z,6.30
2018-09-02T02:11:13.220Z,6.42
2018-09-02T02:13:42.819Z,8.30
2018-09-02T02:16:12.434Z,6.40
2018-09-02T02:18:42.044Z,5.60
2018-09-02T02:21:11.453Z,6.30
2018-09-02T02:23:40.921Z,6.17
2018-09-02T02:26:10.381Z,6.87
2018-09-02T02:28:39.762Z,5.13
2018-09-02T02:31:09.116Z,5.53
2018-09-02T02:33:38.473Z,5.60
2018-09-02T02:36:07.954Z,6.90
2018-09-02T02:38:38.502Z,5.93
2018-09-02T02:41:08.088Z,5.43
2018-09-02T02:43:37.516Z,6.07
2018-09-02T02:46:06.918Z,5.83
2018-09-02T02:48:36.301Z,6.90
2018-09-02T02:51:06.805Z,7.90
2018-09-02T02:53:36.499Z,5.40
2018-09-02T02:56:06.656Z,5.37
2018-09-02T02:58:36.023Z,4.80
2018-09-02T03:01:06.048Z,5.17
2018-09-02T03:03:35.443Z,6.30
2018-09-02T03:06:06.301Z,4.60
2018-09-02T03:08:35.676Z,7.27
2018-09-02T03:11:06.520Z,6.73
2018-09-02T03:13:35.889Z,6.00
2018-09-02T03:16:08.612Z,5.07
2018-09-02T03:18:39.174Z,5.97
2018-09-02T03:21:08.519Z,5.53
2018-09-02T03:23:37.954Z,4.90
2018-09-02T03:26:07.329Z,6.23
2018-09-02T03:28:36.661Z,6.47
2018-09-02T03:31:06.979Z,5.40
2018-09-02T03:33:36.485Z,5.73
2018-09-02T03:36:06.463Z,7.12
2018-09-02T03:38:35.873Z,5.97
2018-09-02T03:41:06.972Z,6.20
2018-09-02T03:43:36.493Z,5.70
2018-09-02T03:46:06.025Z,5.75
2018-09-02T03:48:35.529Z,5.00
2018-09-02T03:51:06.138Z,5.13
2018-09-02T03:53:35.572Z,4.67
2018-09-02T03:56:06.228Z,4.10
2018-09-02T03:58:35.594Z,3.87
2018-09-02T04:01:06.625Z,3.70
2018-09-02T04:03:36.290Z,4.90
2018-09-02T04:06:06.757Z,4.45
2018-09-02T04:08:36.189Z,3.53
2018-09-02T04:11:06.190Z,4.22
2018-09-02T04:13:35.606Z,4.30
2018-09-02T04:16:06.200Z,3.90
2018-09-02T04:18:35.611Z,3.47
2018-09-02T04:21:06.452Z,3.27
2018-09-02T04:23:35.889Z,3.83
2018-09-02T04:26:06.354Z,4.50
2018-09-02T04:28:35.899Z,4.73
2018-09-02T04:31:06.444Z,4.83
2018-09-02T04:33:35.886Z,3.83
2018-09-02T04:36:06.178Z,4.25
2018-09-02T04:38:35.539Z,3.70
2018-09-02T04:41:06.489Z,3.57
2018-09-02T04:43:35.851Z,4.27
2018-09-02T04:46:06.790Z,3.80
2018-09-02T04:48:36.145Z,3.55
2018-09-02T04:51:06.888Z,2.90
2018-09-02T04:53:37.202Z,2.77
2018-09-02T04:56:06.537Z,2.80
2018-09-02T04:58:35.918Z,3.87
2018-09-02T05:01:06.086Z,2.58
2018-09-02T05:03:35.590Z,3.97
2018-09-02T05:06:04.989Z,2.87
2018-09-02T05:08:34.412Z,3.23
2018-09-02T05:11:03.865Z,2.63
2018-09-02T05:13:33.283Z,3.43
2018-09-02T05:16:02.799Z,4.17
2018-09-02T05:18:32.294Z,3.60
2018-09-02T05:21:02.003Z,4.27
2018-09-02T05:23:31.401Z,4.23
2018-09-02T05:26:01.410Z,3.80
2018-09-02T05:28:30.941Z,5.87
2018-09-02T05:31:00.423Z,6.12
2018-09-02T05:33:30.292Z,6.40
2018-09-02T05:35:59.783Z,5.40
2018-09-02T05:38:29.215Z,5.83
2018-09-02T05:40:58.596Z,7.10
2018-09-02T05:43:29.493Z,7.30
2018-09-02T05:45:58.891Z,5.70
2018-09-02T05:48:28.362Z,7.60
2018-09-02T05:50:57.849Z,8.50
2018-09-02T05:53:27.418Z,8.90
2018-09-02T05:55:57.338Z,8.67
2018-09-02T05:58:26.772Z,11.00
2018-09-02T06:00:56.186Z,10.97
2018-09-02T06:03:25.733Z,11.37
2018-09-02T06:05:55.160Z,11.90
2018-09-02T06:08:24.545Z,12.43
2018-09-02T06:10:53.965Z,13.37
2018-09-02T06:13:23.361Z,13.57
2018-09-02T06:15:52.807Z,13.43
2018-09-02T06:18:22.277Z,13.67
2018-09-02T06:20:51.676Z,13.00
2018-09-02T06:23:21.119Z,13.10
2018-09-02T06:25:51.732Z,13.20
2018-09-02T06:28:21.216Z,13.28
2018-09-02T06:30:50.851Z,11.60
2018-09-02T06:33:20.370Z,13.20
2018-09-02T06:35:49.867Z,13.17
2018-09-02T06:38:23.064Z,13.13
2018-09-02T06:40:52.454Z,14.40
2018-09-02T06:43:21.894Z,15.40
2018-09-02T06:45:51.389Z,14.40
2018-09-02T06:48:21.399Z,15.83
2018-09-02T06:50:50.991Z,16.03
2018-09-02T06:53:20.404Z,16.42
2018-09-02T06:55:49.820Z,18.40
2018-09-02T06:58:19.294Z,19.85
2018-09-02T07:00:48.758Z,20.67
2018-09-02T07:03:18.442Z,19.93
2018-09-02T07:05:48.608Z,19.73
2018-09-02T07:08:18.033Z,20.70
2018-09-02T07:10:47.549Z,19.13
2018-09-02T07:13:17.006Z,19.80
2018-09-02T07:15:46.514Z,22.00
2018-09-02T07:18:15.969Z,18.87
2018-09-02T07:20:46.003Z,19.37
2018-09-02T07:23:15.347Z,19.67
2018-09-02T07:25:44.876Z,21.03
2018-09-02T07:28:14.485Z,19.05
2018-09-02T07:30:43.990Z,17.70
2018-09-02T07:33:13.786Z,17.10
2018-09-02T07:35:43.519Z,18.27
2018-09-02T07:38:12.988Z,19.27
2018-09-02T07:40:42.607Z,15.93
2018-09-02T07:43:12.173Z,20.52
2018-09-02T07:45:41.749Z,21.73
2018-09-02T07:48:11.164Z,22.52
2018-09-02T07:50:40.647Z,21.80
2018-09-02T07:53:10.355Z,22.67
2018-09-02T07:55:39.844Z,19.10
2018-09-02T07:58:09.402Z,16.83
2018-09-02T08:00:38.993Z,16.67
2018-09-02T08:03:09.605Z,17.17
2018-09-02T08:05:39.125Z,18.60
2018-09-02T08:08:08.579Z,17.20
2018-09-02T08:10:38.009Z,14.70
2018-09-02T08:13:07.494Z,15.43
2018-09-02T08:15:36.953Z,15.87
2018-09-02T08:18:06.597Z,14.57
2018-09-02T08:20:36.203Z,13.10
2018-09-02T08:23:07.272Z,11.22
2018-09-02T08:25:36.651Z,12.27
2018-09-02T08:28:07.233Z,12.07
2018-09-02T08:30:38.399Z,10.87
2018-09-02T08:33:07.923Z,8.33
2018-09-02T08:35:37.348Z,8.20
2018-09-02T08:38:06.922Z,8.13
2018-09-02T08:40:36.463Z,6.33
2018-09-02T08:43:06.848Z,6.87
2018-09-02T08:45:36.274Z,6.33
2018-09-02T08:48:07.479Z,8.30
2018-09-02T08:50:37.351Z,6.20
2018-09-02T08:53:06.750Z,6.30
2018-09-02T08:55:36.291Z,5.40
2018-09-02T08:58:06.894Z,4.80
2018-09-02T09:00:36.274Z,4.70
2018-09-02T09:03:06.173Z,4.70
2018-09-02T09:05:35.601Z,4.97
2018-09-02T09:08:06.555Z,4.57
2018-09-02T09:10:36.156Z,4.30
2018-09-02T09:13:08.246Z,4.60
2018-09-02T09:15:37.682Z,4.93
2018-09-02T09:18:07.235Z,5.50
2018-09-02T09:20:36.734Z,4.50
2018-09-02T09:23:07.327Z,4.80
2018-09-02T09:25:36.825Z,4.83
2018-09-02T09:28:06.783Z,4.60
2018-09-02T09:30:36.869Z,4.90
2018-09-02T09:33:07.473Z,4.60
2018-09-02T09:35:37.710Z,4.73
2018-09-02T09:38:07.241Z,5.40
2018-09-02T09:40:36.761Z,5.03
2018-09-02T09:43:06.428Z,4.37
2018-09-02T09:45:35.798Z,4.70
2018-09-02T09:48:06.562Z,5.13
2018-09-02T09:50:37.008Z,5.10
2018-09-02T09:53:06.739Z,5.80
2018-09-02T09:55:36.229Z,5.10
2018-09-02T09:58:06.290Z,5.30
2018-09-02T10:00:40.881Z,4.73
2018-09-02T10:03:10.305Z,4.57
2018-09-02T10:05:39.785Z,4.70
2018-09-02T10:08:09.229Z,4.50
2018-09-02T10:10:38.666Z,3.80
2018-09-02T10:13:08.217Z,3.53
2018-09-02T10:15:38.428Z,3.80
2018-09-02T10:18:08.373Z,4.53
2018-09-02T10:20:37.918Z,4.10
2018-09-02T10:23:07.450Z,3.57
2018-09-02T10:25:36.846Z,4.40
2018-09-02T10:28:06.856Z,4.50
2018-09-02T10:30:36.314Z,3.30
2018-09-02T10:33:06.549Z,3.53
2018-09-02T10:35:35.998Z,3.80
2018-09-02T10:38:06.317Z,4.03
2018-09-02T10:40:35.804Z,3.97
2018-09-02T10:43:06.240Z,3.00
2018-09-02T10:45:35.718Z,3.40
2018-09-02T10:48:06.481Z,2.74
2018-09-02T10:50:36.082Z,2.60
2018-09-02T10:53:06.407Z,3.12
2018-09-02T10:55:35.845Z,3.63
2018-09-02T10:58:06.613Z,3.73
2018-09-02T11:00:36.150Z,3.20
2018-09-02T11:03:06.190Z,3.53
2018-09-02T11:05:35.683Z,2.57
2018-09-02T11:08:06.310Z,2.80
2018-09-02T11:10:35.702Z,2.97
2018-09-02T11:13:06.899Z,2.47
2018-09-02T11:15:36.714Z,3.00
2018-09-02T11:18:06.794Z,2.97
2018-09-02T11:20:36.206Z,3.03
2018-09-02T11:23:06.165Z,2.58
2018-09-02T11:25:36.893Z,3.10
2018-09-02T11:28:06.792Z,2.87
2018-09-02T11:30:36.224Z,3.63
2018-09-02T11:33:06.340Z,2.37
2018-09-02T11:35:36.552Z,2.40
2018-09-02T11:38:06.472Z,4.07
2018-09-02T11:40:40.369Z,3.00
2018-09-02T11:43:09.817Z,5.93
2018-09-02T11:45:39.982Z,2.30
2018-09-02T11:48:09.359Z,2.63
2018-09-02T11:50:38.974Z,2.47
2018-09-02T11:53:08.509Z,2.30
2018-09-02T11:55:37.901Z,2.60
2018-09-02T11:58:07.572Z,2.20
2018-09-02T12:00:36.998Z,2.30
2018-09-02T12:03:06.429Z,2.35
2018-09-02T12:05:35.826Z,2.60
2018-09-02T12:08:06.614Z,1.83
2018-09-02T12:10:36.085Z,2.20
2018-09-02T12:13:06.297Z,2.20
2018-09-02T12:15:35.766Z,3.13
2018-09-02T12:18:06.456Z,2.50
2018-09-02T12:20:35.921Z,2.20
2018-09-02T12:23:09.718Z,2.17
2018-09-02T12:25:39.843Z,2.20
2018-09-02T12:28:09.635Z,2.30
2018-09-02T12:30:39.303Z,2.60
2018-09-02T12:33:09.071Z,2.20
2018-09-02T12:35:38.649Z,2.60
2018-09-02T12:38:08.194Z,2.87
2018-09-02T12:40:37.773Z,1.90
2018-09-02T12:43:07.364Z,2.02
2018-09-02T12:45:36.978Z,2.05
2018-09-02T12:48:06.581Z,2.30
2018-09-02T12:50:36.116Z,2.27
2018-09-02T12:53:07.169Z,2.22
2018-09-02T12:55:36.964Z,2.20
2018-09-02T12:58:06.424Z,2.00
2018-09-02T13:00:35.995Z,2.30
2018-09-02T13:03:06.608Z,2.20
2018-09-02T13:05:41.965Z,2.20
2018-09-02T13:08:11.524Z,1.90
2018-09-02T13:10:42.508Z,2.20
2018-09-02T13:13:11.978Z,2.40
2018-09-02T13:15:41.772Z,2.30
2018-09-02T13:18:11.345Z,2.30
2018-09-02T13:20:41.017Z,2.20
2018-09-02T13:23:10.588Z,2.07
2018-09-02T13:25:41.860Z,2.60
2018-09-02T13:28:11.345Z,2.58
2018-09-02T13:30:40.854Z,2.80
2018-09-02T13:33:10.340Z,2.63
2018-09-02T13:35:39.872Z,2.67
2018-09-02T13:38:09.397Z,2.50
2018-09-02T13:40:38.860Z,2.50
2018-09-02T13:43:08.495Z,2.77
2018-09-02T13:45:38.063Z,2.63
2018-09-02T13:48:07.494Z,2.53
2018-09-02T13:50:36.993Z,2.33
2018-09-02T13:53:07.368Z,2.73
2018-09-02T13:55:37.001Z,3.00
2018-09-02T13:58:08.547Z,2.80
2018-09-02T14:00:38.752Z,2.30
2018-09-02T14:03:08.330Z,2.40
2018-09-02T14:05:38.042Z,2.55
2018-09-02T14:08:08.386Z,2.27
2018-09-02T14:10:37.851Z,3.03
2018-09-02T14:13:07.298Z,2.23
2018-09-02T14:15:36.721Z,2.40
2018-09-02T14:18:06.257Z,2.50
2018-09-02T14:20:35.860Z,1.98
2018-09-02T14:23:06.648Z,2.37
2018-09-02T14:25:36.182Z,2.40
2018-09-02T14:28:06.692Z,2.20
2018-09-02T14:30:37.088Z,2.55
2018-09-02T14:33:06.554Z,2.33
2018-09-02T14:35:36.075Z,2.27
2018-09-02T14:38:06.347Z,2.30
2018-09-02T14:40:35.746Z,2.40
2018-09-02T14:43:06.529Z,2.37
2018-09-02T14:45:36.188Z,2.40
2018-09-02T14:48:06.851Z,2.50
2018-09-02T14:50:36.461Z,2.30
2018-09-02T14:53:06.245Z,2.42
2018-09-02T14:55:35.635Z,2.43
2018-09-02T14:58:06.414Z,2.40
2018-09-02T15:00:36.408Z,2.70
2018-09-02T15:03:06.474Z,2.40
2018-09-02T15:05:36.410Z,3.52
2018-09-02T15:08:07.711Z,3.30
2018-09-02T15:10:37.356Z,3.17
2018-09-02T15:13:06.786Z,2.47
2018-09-02T15:15:36.406Z,3.10
2018-09-02T15:18:06.204Z,2.60
2018-09-02T15:20:35.614Z,2.60
2018-09-02T15:23:06.704Z,2.50
2018-09-02T15:25:36.057Z,2.52
2018-09-02T15:28:06.515Z,2.40
2018-09-02T15:30:35.960Z,2.17
2018-09-02T15:33:06.469Z,2.33
2018-09-02T15:35:35.842Z,2.30
2018-09-02T15:38:06.490Z,2.27
2018-09-02T15:40:36.078Z,2.13
2018-09-02T15:43:06.266Z,2.40
2018-09-02T15:45:35.850Z,2.40
2018-09-02T15:48:06.427Z,3.16
2018-09-02T15:50:35.921Z,2.80
2018-09-02T15:53:06.966Z,2.70
2018-09-02T15:55:36.425Z,2.80
2018-09-02T15:58:08.626Z,3.04
2018-09-02T16:00:40.858Z,3.22
2018-09-02T16:03:10.719Z,2.20
2018-09-02T16:05:40.249Z,2.50
2018-09-02T16:08:09.737Z,2.60
2018-09-02T16:10:39.819Z,2.80
2018-09-02T16:13:09.184Z,3.30
2018-09-02T16:15:38.626Z,2.98
2018-09-02T16:18:08.008Z,2.85
2018-09-02T16:20:37.485Z,3.10
2018-09-02T16:23:06.970Z,3.07
2018-09-02T16:25:36.347Z,3.33
2018-09-02T16:28:06.833Z,3.25
2018-09-02T16:30:36.302Z,3.40
2018-09-02T16:33:08.437Z,3.20
2018-09-02T16:35:37.872Z,3.08
2018-09-02T16:38:07.413Z,3.15
2018-09-02T16:40:36.858Z,2.95
2018-09-02T16:43:06.822Z,2.85
2018-09-02T16:45:36.267Z,3.05
2018-09-02T16:48:06.294Z,2.95
2018-09-02T16:50:35.722Z,2.72
2018-09-02T16:53:06.293Z,3.24
2018-09-02T16:55:35.655Z,2.87
2018-09-02T16:58:07.382Z,2.85
2018-09-02T17:00:37.176Z,3.20
2018-09-02T17:03:06.611Z,2.80
2018-09-02T17:05:36.191Z,3.12
2018-09-02T17:08:06.619Z,3.70
2018-09-02T17:10:36.136Z,3.77
2018-09-02T17:13:08.493Z,3.50
2018-09-02T17:15:41.176Z,3.50
2018-09-02T17:18:10.775Z,3.40
2018-09-02T17:20:44.582Z,3.73
2018-09-02T17:23:14.549Z,3.70
2018-09-02T17:25:45.316Z,3.40
2018-09-02T17:28:15.026Z,3.70
2018-09-02T17:30:44.513Z,3.20
2018-09-02T17:33:14.767Z,3.22
2018-09-02T17:35:44.199Z,3.70
2018-09-02T17:38:15.557Z,3.60
2018-09-02T17:40:45.164Z,3.20
2018-09-02T17:43:14.544Z,3.30
2018-09-02T17:45:45.765Z,3.53
2018-09-02T17:48:15.416Z,4.13
2018-09-02T17:50:44.964Z,4.47
2018-09-02T17:53:14.804Z,4.33
2018-09-02T17:55:44.857Z,4.67
2018-09-02T17:58:14.373Z,4.30
2018-09-02T18:00:50.054Z,4.80
2018-09-02T18:03:20.361Z,5.22
2018-09-02T18:05:49.941Z,6.10
2018-09-02T18:08:20.773Z,6.20
2018-09-02T18:10:50.341Z,5.97
2018-09-02T18:13:20.035Z,5.65
2018-09-02T18:15:49.599Z,5.47
2018-09-02T18:18:19.316Z,5.28
2018-09-02T18:20:51.070Z,5.53
2018-09-02T18:23:20.486Z,5.63
2018-09-02T18:25:50.928Z,6.13
2018-09-02T18:28:23.272Z,5.50
2018-09-02T18:30:54.045Z,6.40
2018-09-02T18:33:24.861Z,5.20
2018-09-02T18:35:57.595Z,6.50
2018-09-02T18:38:27.500Z,6.70
2018-09-02T18:40:56.950Z,5.93
2018-09-02T18:43:26.455Z,6.47
2018-09-02T18:45:55.966Z,7.37
2018-09-02T18:48:25.424Z,7.77
2018-09-02T18:50:54.822Z,7.17
2018-09-02T18:53:24.388Z,7.80
2018-09-02T18:55:55.217Z,7.20
2018-09-02T18:58:24.842Z,7.50
2018-09-02T19:00:54.361Z,8.13
2018-09-02T19:03:24.264Z,7.25
2018-09-02T19:05:53.778Z,7.23
2018-09-02T19:08:26.916Z,8.40
2018-09-02T19:10:56.325Z,7.30
2018-09-02T19:13:25.715Z,8.27
2018-09-02T19:15:55.651Z,7.53
2018-09-02T19:18:38.453Z,7.23
2018-09-02T19:21:07.858Z,7.30
2018-09-02T19:23:37.369Z,7.90
2018-09-02T19:26:06.817Z,7.83
2018-09-02T19:28:36.165Z,8.10
2018-09-02T19:31:06.185Z,7.87
2018-09-02T19:33:35.970Z,8.43
2018-09-02T19:36:07.572Z,8.68
2018-09-02T19:38:37.157Z,8.03
2018-09-02T19:41:08.727Z,8.17
2018-09-02T19:43:38.299Z,8.17
2018-09-02T19:46:07.859Z,7.43
2018-09-02T19:48:37.340Z,7.63
2018-09-02T19:51:07.221Z,7.87
2018-09-02T19:53:37.431Z,7.30
2018-09-02T19:56:06.947Z,7.47
2018-09-02T19:58:36.436Z,7.53
2018-09-02T20:01:07.200Z,6.67
2018-09-02T20:03:36.834Z,6.93
2018-09-02T20:06:06.310Z,7.47
2018-09-02T20:08:35.732Z,6.60
2018-09-02T20:11:06.448Z,5.27
2018-09-02T20:13:35.935Z,5.50
2018-09-02T20:16:06.552Z,6.20
2018-09-02T20:18:36.171Z,6.13
2018-09-02T20:21:06.338Z,6.53
2018-09-02T20:23:35.756Z,6.97
2018-09-02T20:26:06.362Z,6.33
2018-09-02T20:28:35.811Z,5.93
2018-09-02T20:31:08.454Z,7.12
2018-09-02T20:33:37.869Z,7.03
2018-09-02T20:36:07.322Z,6.90
2018-09-02T20:38:37.126Z,7.23
2018-09-02T20:41:06.681Z,5.30
2018-09-02T20:43:36.884Z,7.50
2018-09-02T20:46:06.618Z,5.57
2018-09-02T20:48:36.958Z,5.63
2018-09-02T20:51:07.246Z,6.77
2018-09-02T20:53:36.843Z,7.03
2018-09-02T20:56:07.006Z,7.33
2018-09-02T20:58:36.782Z,7.23
2018-09-02T21:01:06.857Z,7.58
2018-09-02T21:03:36.354Z,6.20
2018-09-02T21:06:06.785Z,8.03
2018-09-02T21:08:36.255Z,6.70
2018-09-02T21:11:06.911Z,8.53
2018-09-02T21:13:36.273Z,7.60
2018-09-02T21:16:06.486Z,7.50
2018-09-02T21:18:37.150Z,7.17
2018-09-02T21:21:06.530Z,5.60
2018-09-02T21:23:35.998Z,7.67
2018-09-02T21:26:06.409Z,7.25
2018-09-02T21:28:35.948Z,6.60
2018-09-02T21:31:08.638Z,5.57
2018-09-02T21:33:38.049Z,7.03
2018-09-02T21:36:07.439Z,7.60
2018-09-02T21:38:37.404Z,7.17
2018-09-02T21:41:06.913Z,6.53
2018-09-02T21:43:39.318Z,6.87
2018-09-02T21:46:09.149Z,7.23
2018-09-02T21:48:38.744Z,6.80
2018-09-02T21:51:08.844Z,7.33
2018-09-02T21:53:38.220Z,6.60
2018-09-02T21:56:07.621Z,8.50
2018-09-02T21:58:37.052Z,8.78
2018-09-02T22:01:07.606Z,7.00
2018-09-02T22:03:36.982Z,8.40
2018-09-02T22:06:06.747Z,8.97
2018-09-02T22:08:37.641Z,8.73
2018-09-02T22:11:07.238Z,10.00
2018-09-02T22:13:36.698Z,7.10
2018-09-02T22:16:06.421Z,7.70
2018-09-02T22:18:35.849Z,8.57
2018-09-02T22:21:06.533Z,7.57
2018-09-02T22:23:36.167Z,8.53
2018-09-02T22:26:06.203Z,8.30
2018-09-02T22:28:35.611Z,8.57
2018-09-02T22:31:06.281Z,9.17
2018-09-02T22:33:35.748Z,8.27
2018-09-02T22:36:06.418Z,8.63
2018-09-02T22:38:35.805Z,8.43
2018-09-02T22:41:06.521Z,7.80
2018-09-02T22:43:35.927Z,7.37
2018-09-02T22:46:06.560Z,7.85
2018-09-02T22:48:35.955Z,7.90
2018-09-02T22:51:06.724Z,7.90
2018-09-02T22:53:36.139Z,8.67
2018-09-02T22:56:06.451Z,8.35
2018-09-02T22:58:36.693Z,7.10
2018-09-02T23:01:06.815Z,7.70
2018-09-02T23:03:36.221Z,7.90
2018-09-02T23:06:06.356Z,9.33
2018-09-02T23:08:35.764Z,9.50
2018-09-02T23:11:06.075Z,8.88
2018-09-02T23:13:35.446Z,7.67
2018-09-02T23:16:06.088Z,8.13
2018-09-02T23:18:35.506Z,7.03
2018-09-02T23:21:14.161Z,9.10
2018-09-02T23:23:53.528Z,8.93
2018-09-02T23:26:30.903Z,9.37
2018-09-02T23:29:08.485Z,9.10
2018-09-02T23:31:46.513Z,8.83
2018-09-02T23:34:23.258Z,8.95
2018-09-02T23:36:59.937Z,10.00
2018-09-02T23:39:39.765Z,9.83
2018-09-02T23:42:18.012Z,8.33
2018-09-02T23:44:57.751Z,10.33
2018-09-02T23:47:35.837Z,8.20
2018-09-02T23:50:13.487Z,9.60
2018-09-02T23:52:47.107Z,7.87
2018-09-02T23:55:20.932Z,9.97
2018-09-02T23:57:59.750Z,7.43
